sensor_id;sensor_type;location;lat;lon;timestamp;temperature;humidity
20568;DHT22;10442;49.932;11.592;2022-09-16T00:00:57;16.40;74.80
20568;DHT22;10442;49.932;11.592;2022-09-16T00:03:25;16.30;74.50
20568;DHT22;10442;49.932;11.592;2022-09-16T00:05:53;16.30;74.20
20568;DHT22;10442;49.932;11.592;2022-09-16T00:08:21;16.30;74.20
20568;DHT22;10442;49.932;11.592;2022-09-16T00:10:49;16.30;74.10
20568;DHT22;10442;49.932;11.592;2022-09-16T00:13:18;16.20;74.40
20568;DHT22;10442;49.932;11.592;2022-09-16T00:15:48;16.20;74.80
20568;DHT22;10442;49.932;11.592;2022-09-16T00:18:17;16.20;75.20
20568;DHT22;10442;49.932;11.592;2022-09-16T00:20:48;16.20;75.20
20568;DHT22;10442;49.932;11.592;2022-09-16T00:23:17;16.20;75.20
20568;DHT22;10442;49.932;11.592;2022-09-16T00:25:52;16.20;75.30
20568;DHT22;10442;49.932;11.592;2022-09-16T00:28:21;16.10;75.60
20568;DHT22;10442;49.932;11.592;2022-09-16T00:30:49;16.10;75.40
20568;DHT22;10442;49.932;11.592;2022-09-16T00:33:17;16.10;75.20
20568;DHT22;10442;49.932;11.592;2022-09-16T00:35:46;16.10;75.20
20568;DHT22;10442;49.932;11.592;2022-09-16T00:38:13;16.10;75.20
20568;DHT22;10442;49.932;11.592;2022-09-16T00:40:46;16.10;75.00
20568;DHT22;10442;49.932;11.592;2022-09-16T00:43:15;16.10;75.20
20568;DHT22;10442;49.932;11.592;2022-09-16T00:45:45;16.10;75.20
20568;DHT22;10442;49.932;11.592;2022-09-16T00:48:21;16.10;75.10
20568;DHT22;10442;49.932;11.592;2022-09-16T00:50:55;16.00;75.20
20568;DHT22;10442;49.932;11.592;2022-09-16T00:53:28;16.00;75.20
20568;DHT22;10442;49.932;11.592;2022-09-16T00:55:59;16.00;75.20
20568;DHT22;10442;49.932;11.592;2022-09-16T00:58:46;16.00;75.20
20568;DHT22;10442;49.932;11.592;2022-09-16T01:01:15;15.90;75.40
20568;DHT22;10442;49.932;11.592;2022-09-16T01:03:49;15.90;75.20
20568;DHT22;10442;49.932;11.592;2022-09-16T01:06:18;15.90;75.50
20568;DHT22;10442;49.932;11.592;2022-09-16T01:08:48;15.90;75.40
20568;DHT22;10442;49.932;11.592;2022-09-16T01:11:16;15.90;75.50
20568;DHT22;10442;49.932;11.592;2022-09-16T01:13:45;15.90;75.50
20568;DHT22;10442;49.932;11.592;2022-09-16T01:16:30;15.80;75.30
20568;DHT22;10442;49.932;11.592;2022-09-16T01:19:11;15.80;75.70
20568;DHT22;10442;49.932;11.592;2022-09-16T01:21:48;15.80;75.70
20568;DHT22;10442;49.932;11.592;2022-09-16T01:30:45;15.70;76.10
20568;DHT22;10442;49.932;11.592;2022-09-16T01:36:14;15.70;75.80
20568;DHT22;10442;49.932;11.592;2022-09-16T01:41:52;15.60;75.80
20568;DHT22;10442;49.932;11.592;2022-09-16T01:49:46;15.60;75.80
20568;DHT22;10442;49.932;11.592;2022-09-16T01:55:02;15.60;76.30
20568;DHT22;10442;49.932;11.592;2022-09-16T01:57:38;15.60;76.50
20568;DHT22;10442;49.932;11.592;2022-09-16T02:00:10;15.60;76.70
20568;DHT22;10442;49.932;11.592;2022-09-16T02:02:48;15.60;76.60
20568;DHT22;10442;49.932;11.592;2022-09-16T02:05:25;15.60;76.80
20568;DHT22;10442;49.932;11.592;2022-09-16T02:08:00;15.60;76.70
20568;DHT22;10442;49.932;11.592;2022-09-16T02:10:32;15.60;76.80
20568;DHT22;10442;49.932;11.592;2022-09-16T02:13:07;15.70;76.70
20568;DHT22;10442;49.932;11.592;2022-09-16T02:15:37;15.60;76.60
20568;DHT22;10442;49.932;11.592;2022-09-16T02:18:11;15.70;77.00
20568;DHT22;10442;49.932;11.592;2022-09-16T02:20:42;15.70;77.30
20568;DHT22;10442;49.932;11.592;2022-09-16T02:23:18;15.70;77.20
20568;DHT22;10442;49.932;11.592;2022-09-16T02:25:48;15.70;77.30
20568;DHT22;10442;49.932;11.592;2022-09-16T02:28:22;15.70;77.40
20568;DHT22;10442;49.932;11.592;2022-09-16T02:30:53;15.70;77.40
20568;DHT22;10442;49.932;11.592;2022-09-16T02:33:23;15.60;77.20
20568;DHT22;10442;49.932;11.592;2022-09-16T02:35:56;15.60;77.30
20568;DHT22;10442;49.932;11.592;2022-09-16T02:38:46;15.60;77.20
20568;DHT22;10442;49.932;11.592;2022-09-16T02:41:14;15.70;77.40
20568;DHT22;10442;49.932;11.592;2022-09-16T02:43:43;15.70;77.10
20568;DHT22;10442;49.932;11.592;2022-09-16T02:46:24;15.70;77.10
20568;DHT22;10442;49.932;11.592;2022-09-16T02:48:57;15.70;77.20
20568;DHT22;10442;49.932;11.592;2022-09-16T02:54:33;15.70;77.20
20568;DHT22;10442;49.932;11.592;2022-09-16T02:57:03;15.70;77.00
20568;DHT22;10442;49.932;11.592;2022-09-16T02:59:31;15.70;76.90
20568;DHT22;10442;49.932;11.592;2022-09-16T03:01:59;15.70;77.00
20568;DHT22;10442;49.932;11.592;2022-09-16T03:04:28;15.70;76.90
20568;DHT22;10442;49.932;11.592;2022-09-16T03:06:56;15.60;76.80
20568;DHT22;10442;49.932;11.592;2022-09-16T03:09:23;15.70;76.80
20568;DHT22;10442;49.932;11.592;2022-09-16T03:12:14;15.60;76.60
20568;DHT22;10442;49.932;11.592;2022-09-16T03:20:37;15.60;76.90
20568;DHT22;10442;49.932;11.592;2022-09-16T03:23:41;15.60;76.70
20568;DHT22;10442;49.932;11.592;2022-09-16T03:29:17;15.60;76.70
20568;DHT22;10442;49.932;11.592;2022-09-16T03:31:52;15.50;76.60
20568;DHT22;10442;49.932;11.592;2022-09-16T03:34:44;15.50;76.60
20568;DHT22;10442;49.932;11.592;2022-09-16T03:37:15;15.50;76.80
20568;DHT22;10442;49.932;11.592;2022-09-16T03:39:56;15.50;76.60
20568;DHT22;10442;49.932;11.592;2022-09-16T03:42:24;15.50;76.70
20568;DHT22;10442;49.932;11.592;2022-09-16T03:44:52;15.50;76.60
20568;DHT22;10442;49.932;11.592;2022-09-16T03:47:19;15.50;76.60
20568;DHT22;10442;49.932;11.592;2022-09-16T03:49:47;15.50;76.60
20568;DHT22;10442;49.932;11.592;2022-09-16T03:52:14;15.50;76.50
20568;DHT22;10442;49.932;11.592;2022-09-16T03:54:44;15.50;76.60
20568;DHT22;10442;49.932;11.592;2022-09-16T03:57:12;15.50;76.40
20568;DHT22;10442;49.932;11.592;2022-09-16T03:59:39;15.50;76.50
20568;DHT22;10442;49.932;11.592;2022-09-16T04:02:07;15.50;76.40
20568;DHT22;10442;49.932;11.592;2022-09-16T04:04:34;15.50;76.30
20568;DHT22;10442;49.932;11.592;2022-09-16T04:07:01;15.50;76.40
20568;DHT22;10442;49.932;11.592;2022-09-16T04:09:29;15.50;76.10
20568;DHT22;10442;49.932;11.592;2022-09-16T04:11:56;15.50;76.10
20568;DHT22;10442;49.932;11.592;2022-09-16T04:14:24;15.50;76.20
20568;DHT22;10442;49.932;11.592;2022-09-16T04:16:51;15.50;76.40
20568;DHT22;10442;49.932;11.592;2022-09-16T04:19:19;15.50;76.30
20568;DHT22;10442;49.932;11.592;2022-09-16T04:21:46;15.50;76.30
20568;DHT22;10442;49.932;11.592;2022-09-16T04:24:14;15.50;76.20
20568;DHT22;10442;49.932;11.592;2022-09-16T04:26:41;15.50;76.30
20568;DHT22;10442;49.932;11.592;2022-09-16T04:29:09;15.50;76.40
20568;DHT22;10442;49.932;11.592;2022-09-16T04:31:37;15.50;76.50
20568;DHT22;10442;49.932;11.592;2022-09-16T04:34:05;15.50;76.50
20568;DHT22;10442;49.932;11.592;2022-09-16T04:36:32;15.60;76.50
20568;DHT22;10442;49.932;11.592;2022-09-16T04:39:00;15.50;76.40
20568;DHT22;10442;49.932;11.592;2022-09-16T04:41:27;15.60;76.50
20568;DHT22;10442;49.932;11.592;2022-09-16T04:43:58;15.50;76.40
20568;DHT22;10442;49.932;11.592;2022-09-16T04:46:27;15.50;76.40
20568;DHT22;10442;49.932;11.592;2022-09-16T04:48:55;15.50;76.30
20568;DHT22;10442;49.932;11.592;2022-09-16T04:51:23;15.50;76.30
20568;DHT22;10442;49.932;11.592;2022-09-16T04:53:54;15.50;76.40
20568;DHT22;10442;49.932;11.592;2022-09-16T04:56:25;15.50;76.40
20568;DHT22;10442;49.932;11.592;2022-09-16T04:58:54;15.50;76.30
20568;DHT22;10442;49.932;11.592;2022-09-16T05:01:25;15.50;76.30
20568;DHT22;10442;49.932;11.592;2022-09-16T05:03:55;15.50;76.30
20568;DHT22;10442;49.932;11.592;2022-09-16T05:06:25;15.50;76.30
20568;DHT22;10442;49.932;11.592;2022-09-16T05:08:55;15.50;76.30
20568;DHT22;10442;49.932;11.592;2022-09-16T05:11:25;15.50;76.20
20568;DHT22;10442;49.932;11.592;2022-09-16T05:13:56;15.50;76.20
20568;DHT22;10442;49.932;11.592;2022-09-16T05:16:24;15.50;76.20
20568;DHT22;10442;49.932;11.592;2022-09-16T05:18:54;15.50;76.30
20568;DHT22;10442;49.932;11.592;2022-09-16T05:21:24;15.50;76.30
20568;DHT22;10442;49.932;11.592;2022-09-16T05:23:52;15.50;76.30
20568;DHT22;10442;49.932;11.592;2022-09-16T05:26:23;15.50;76.30
20568;DHT22;10442;49.932;11.592;2022-09-16T05:28:50;15.50;76.40
20568;DHT22;10442;49.932;11.592;2022-09-16T05:31:27;15.50;76.50
20568;DHT22;10442;49.932;11.592;2022-09-16T05:33:59;15.50;76.60
20568;DHT22;10442;49.932;11.592;2022-09-16T05:36:30;15.50;76.60
20568;DHT22;10442;49.932;11.592;2022-09-16T05:38:58;15.50;76.50
20568;DHT22;10442;49.932;11.592;2022-09-16T05:41:46;15.60;76.30
20568;DHT22;10442;49.932;11.592;2022-09-16T05:44:14;15.60;76.40
20568;DHT22;10442;49.932;11.592;2022-09-16T05:46:42;15.60;76.50
20568;DHT22;10442;49.932;11.592;2022-09-16T05:49:10;15.60;76.30
20568;DHT22;10442;49.932;11.592;2022-09-16T05:51:39;15.70;76.40
20568;DHT22;10442;49.932;11.592;2022-09-16T05:54:07;15.70;76.40
20568;DHT22;10442;49.932;11.592;2022-09-16T05:56:36;15.70;76.50
20568;DHT22;10442;49.932;11.592;2022-09-16T05:59:04;15.70;76.50
20568;DHT22;10442;49.932;11.592;2022-09-16T06:01:34;15.70;76.40
20568;DHT22;10442;49.932;11.592;2022-09-16T06:04:04;15.70;76.50
20568;DHT22;10442;49.932;11.592;2022-09-16T06:06:34;15.80;76.40
20568;DHT22;10442;49.932;11.592;2022-09-16T06:09:28;15.80;77.30
20568;DHT22;10442;49.932;11.592;2022-09-16T06:11:54;15.80;76.00
20568;DHT22;10442;49.932;11.592;2022-09-16T06:14:28;15.90;75.80
20568;DHT22;10442;49.932;11.592;2022-09-16T06:16:56;15.90;75.80
20568;DHT22;10442;49.932;11.592;2022-09-16T06:19:25;15.90;75.80
20568;DHT22;10442;49.932;11.592;2022-09-16T06:21:52;15.90;75.90
20568;DHT22;10442;49.932;11.592;2022-09-16T06:24:20;16.00;76.10
20568;DHT22;10442;49.932;11.592;2022-09-16T06:26:48;16.00;75.90
20568;DHT22;10442;49.932;11.592;2022-09-16T06:29:16;16.10;75.40
20568;DHT22;10442;49.932;11.592;2022-09-16T06:31:44;16.10;75.30
20568;DHT22;10442;49.932;11.592;2022-09-16T06:34:16;16.20;75.30
20568;DHT22;10442;49.932;11.592;2022-09-16T06:36:45;16.30;75.30
20568;DHT22;10442;49.932;11.592;2022-09-16T06:39:14;16.30;74.80
20568;DHT22;10442;49.932;11.592;2022-09-16T06:41:42;16.40;74.70
20568;DHT22;10442;49.932;11.592;2022-09-16T06:44:10;16.40;74.80
20568;DHT22;10442;49.932;11.592;2022-09-16T06:46:37;16.50;74.70
20568;DHT22;10442;49.932;11.592;2022-09-16T06:49:05;16.50;74.00
20568;DHT22;10442;49.932;11.592;2022-09-16T06:51:33;16.50;73.70
20568;DHT22;10442;49.932;11.592;2022-09-16T06:54:03;16.60;73.40
20568;DHT22;10442;49.932;11.592;2022-09-16T06:56:33;16.70;73.20
20568;DHT22;10442;49.932;11.592;2022-09-16T06:59:04;16.70;73.30
20568;DHT22;10442;49.932;11.592;2022-09-16T07:01:32;16.70;73.00
20568;DHT22;10442;49.932;11.592;2022-09-16T07:04:03;16.80;72.90
20568;DHT22;10442;49.932;11.592;2022-09-16T07:06:32;16.90;73.20
20568;DHT22;10442;49.932;11.592;2022-09-16T07:09:21;17.00;73.50
20568;DHT22;10442;49.932;11.592;2022-09-16T07:11:48;17.20;73.10
20568;DHT22;10442;49.932;11.592;2022-09-16T07:14:16;17.40;73.40
20568;DHT22;10442;49.932;11.592;2022-09-16T07:16:44;17.70;71.40
20568;DHT22;10442;49.932;11.592;2022-09-16T07:19:12;18.00;70.30
20568;DHT22;10442;49.932;11.592;2022-09-16T07:21:40;18.30;70.90
20568;DHT22;10442;49.932;11.592;2022-09-16T07:24:10;18.80;70.40
20568;DHT22;10442;49.932;11.592;2022-09-16T07:26:39;19.30;69.00
20568;DHT22;10442;49.932;11.592;2022-09-16T07:29:10;19.80;66.50
20568;DHT22;10442;49.932;11.592;2022-09-16T07:31:37;20.30;64.70
20568;DHT22;10442;49.932;11.592;2022-09-16T07:34:08;20.60;63.30
20568;DHT22;10442;49.932;11.592;2022-09-16T07:36:46;20.90;61.40
20568;DHT22;10442;49.932;11.592;2022-09-16T07:39:16;21.10;60.80
20568;DHT22;10442;49.932;11.592;2022-09-16T07:41:45;21.40;60.80
20568;DHT22;10442;49.932;11.592;2022-09-16T07:44:17;21.70;61.20
20568;DHT22;10442;49.932;11.592;2022-09-16T07:46:45;22.20;59.00
20568;DHT22;10442;49.932;11.592;2022-09-16T07:49:14;22.70;59.70
20568;DHT22;10442;49.932;11.592;2022-09-16T07:51:42;23.10;57.30
20568;DHT22;10442;49.932;11.592;2022-09-16T07:54:13;23.50;56.90
20568;DHT22;10442;49.932;11.592;2022-09-16T07:56:43;23.80;55.60
20568;DHT22;10442;49.932;11.592;2022-09-16T07:59:13;24.10;55.00
20568;DHT22;10442;49.932;11.592;2022-09-16T08:01:46;24.30;54.40
20568;DHT22;10442;49.932;11.592;2022-09-16T08:04:16;24.50;53.50
20568;DHT22;10442;49.932;11.592;2022-09-16T08:06:45;24.60;51.80
20568;DHT22;10442;49.932;11.592;2022-09-16T08:09:13;24.60;50.90
20568;DHT22;10442;49.932;11.592;2022-09-16T08:12:03;24.60;50.90
20568;DHT22;10442;49.932;11.592;2022-09-16T08:14:32;24.70;51.20
20568;DHT22;10442;49.932;11.592;2022-09-16T08:16:59;24.90;49.40
20568;DHT22;10442;49.932;11.592;2022-09-16T08:19:28;25.00;49.80
20568;DHT22;10442;49.932;11.592;2022-09-16T08:21:56;25.20;49.90
20568;DHT22;10442;49.932;11.592;2022-09-16T08:24:24;25.30;49.20
20568;DHT22;10442;49.932;11.592;2022-09-16T08:26:52;25.20;48.20
20568;DHT22;10442;49.932;11.592;2022-09-16T08:29:24;25.00;48.10
20568;DHT22;10442;49.932;11.592;2022-09-16T08:31:52;24.70;47.80
20568;DHT22;10442;49.932;11.592;2022-09-16T08:34:19;24.30;48.00
20568;DHT22;10442;49.932;11.592;2022-09-16T08:36:47;24.10;48.70
20568;DHT22;10442;49.932;11.592;2022-09-16T08:39:15;23.80;48.30
20568;DHT22;10442;49.932;11.592;2022-09-16T08:42:04;23.60;48.80
20568;DHT22;10442;49.932;11.592;2022-09-16T08:48:02;23.00;49.70
20568;DHT22;10442;49.932;11.592;2022-09-16T08:50:39;22.70;50.70
20568;DHT22;10442;49.932;11.592;2022-09-16T08:56:09;22.80;51.70
20568;DHT22;10442;49.932;11.592;2022-09-16T08:58:41;23.10;51.10
20568;DHT22;10442;49.932;11.592;2022-09-16T09:01:44;23.30;50.50
20568;DHT22;10442;49.932;11.592;2022-09-16T09:04:14;23.60;50.00
20568;DHT22;10442;49.932;11.592;2022-09-16T09:07:21;23.90;49.60
20568;DHT22;10442;49.932;11.592;2022-09-16T09:12:33;24.10;48.60
20568;DHT22;10442;49.932;11.592;2022-09-16T09:18:11;23.80;46.40
20568;DHT22;10442;49.932;11.592;2022-09-16T09:26:36;22.70;47.60
20568;DHT22;10442;49.932;11.592;2022-09-16T09:32:18;21.90;49.10
20568;DHT22;10442;49.932;11.592;2022-09-16T09:43:42;21.70;50.60
20568;DHT22;10442;49.932;11.592;2022-09-16T09:46:24;21.80;51.10
20568;DHT22;10442;49.932;11.592;2022-09-16T09:48:59;21.90;50.60
20568;DHT22;10442;49.932;11.592;2022-09-16T09:51:50;22.00;50.60
20568;DHT22;10442;49.932;11.592;2022-09-16T09:54:30;22.00;50.20
20568;DHT22;10442;49.932;11.592;2022-09-16T10:00:04;22.00;50.90
20568;DHT22;10442;49.932;11.592;2022-09-16T10:02:40;22.00;50.20
20568;DHT22;10442;49.932;11.592;2022-09-16T10:05:21;22.00;49.90
20568;DHT22;10442;49.932;11.592;2022-09-16T10:07:57;21.90;49.50
20568;DHT22;10442;49.932;11.592;2022-09-16T10:10:32;21.90;49.80
20568;DHT22;10442;49.932;11.592;2022-09-16T10:13:11;21.80;49.80
20568;DHT22;10442;49.932;11.592;2022-09-16T10:15:40;21.80;49.90
20568;DHT22;10442;49.932;11.592;2022-09-16T10:18:13;21.70;50.20
20568;DHT22;10442;49.932;11.592;2022-09-16T10:20:42;21.70;50.40
20568;DHT22;10442;49.932;11.592;2022-09-16T10:23:18;21.60;50.10
20568;DHT22;10442;49.932;11.592;2022-09-16T10:25:46;21.60;49.30
20568;DHT22;10442;49.932;11.592;2022-09-16T10:28:23;21.50;49.70
20568;DHT22;10442;49.932;11.592;2022-09-16T10:30:54;21.40;49.60
20568;DHT22;10442;49.932;11.592;2022-09-16T10:33:31;21.40;49.80
20568;DHT22;10442;49.932;11.592;2022-09-16T10:36:02;21.30;49.80
20568;DHT22;10442;49.932;11.592;2022-09-16T10:38:43;21.20;49.90
20568;DHT22;10442;49.932;11.592;2022-09-16T10:41:20;21.10;50.00
20568;DHT22;10442;49.932;11.592;2022-09-16T10:43:56;21.00;49.20
20568;DHT22;10442;49.932;11.592;2022-09-16T10:46:25;20.90;50.00
20568;DHT22;10442;49.932;11.592;2022-09-16T10:49:09;20.90;50.20
20568;DHT22;10442;49.932;11.592;2022-09-16T10:51:37;20.90;50.60
20568;DHT22;10442;49.932;11.592;2022-09-16T10:54:05;20.90;49.90
20568;DHT22;10442;49.932;11.592;2022-09-16T10:56:48;20.80;50.10
20568;DHT22;10442;49.932;11.592;2022-09-16T10:59:16;20.90;50.30
20568;DHT22;10442;49.932;11.592;2022-09-16T11:10:43;21.10;50.40
20568;DHT22;10442;49.932;11.592;2022-09-16T11:24:21;21.40;48.00
20568;DHT22;10442;49.932;11.592;2022-09-16T11:29:36;21.40;49.00
20568;DHT22;10442;49.932;11.592;2022-09-16T11:32:13;21.40;48.60
20568;DHT22;10442;49.932;11.592;2022-09-16T11:37:31;21.20;48.40
20568;DHT22;10442;49.932;11.592;2022-09-16T11:45:51;21.10;49.30
20568;DHT22;10442;49.932;11.592;2022-09-16T11:48:48;21.10;49.90
20568;DHT22;10442;49.932;11.592;2022-09-16T11:56:56;21.20;48.90
20568;DHT22;10442;49.932;11.592;2022-09-16T11:59:31;21.20;48.40
20568;DHT22;10442;49.932;11.592;2022-09-16T12:02:24;21.20;48.70
20568;DHT22;10442;49.932;11.592;2022-09-16T12:05:00;21.20;48.90
20568;DHT22;10442;49.932;11.592;2022-09-16T12:07:41;21.30;49.30
20568;DHT22;10442;49.932;11.592;2022-09-16T12:10:24;21.30;49.00
20568;DHT22;10442;49.932;11.592;2022-09-16T12:13:19;21.40;48.50
20568;DHT22;10442;49.932;11.592;2022-09-16T12:15:52;21.60;49.10
20568;DHT22;10442;49.932;11.592;2022-09-16T12:18:30;21.70;48.50
20568;DHT22;10442;49.932;11.592;2022-09-16T12:21:15;21.70;47.70
20568;DHT22;10442;49.932;11.592;2022-09-16T12:23:54;21.80;47.70
20568;DHT22;10442;49.932;11.592;2022-09-16T12:26:39;21.90;47.70
20568;DHT22;10442;49.932;11.592;2022-09-16T12:29:15;21.90;47.40
20568;DHT22;10442;49.932;11.592;2022-09-16T12:31:49;22.00;47.60
20568;DHT22;10442;49.932;11.592;2022-09-16T12:34:36;22.10;46.60
20568;DHT22;10442;49.932;11.592;2022-09-16T12:39:47;22.20;46.90
20568;DHT22;10442;49.932;11.592;2022-09-16T12:42:39;22.10;45.90
20568;DHT22;10442;49.932;11.592;2022-09-16T12:47:53;21.90;46.00
20568;DHT22;10442;49.932;11.592;2022-09-16T13:02:25;21.30;53.70
20568;DHT22;10442;49.932;11.592;2022-09-16T13:04:48;21.20;53.40
20568;DHT22;10442;49.932;11.592;2022-09-16T13:07:27;21.10;53.20
20568;DHT22;10442;49.932;11.592;2022-09-16T13:10:17;21.10;54.20
20568;DHT22;10442;49.932;11.592;2022-09-16T13:13:02;21.10;53.70
20568;DHT22;10442;49.932;11.592;2022-09-16T13:15:35;21.00;52.80
20568;DHT22;10442;49.932;11.592;2022-09-16T13:20:49;21.00;52.90
20568;DHT22;10442;49.932;11.592;2022-09-16T13:23:25;21.00;52.50
20568;DHT22;10442;49.932;11.592;2022-09-16T13:26:08;21.00;51.60
20568;DHT22;10442;49.932;11.592;2022-09-16T13:28:41;21.00;52.00
20568;DHT22;10442;49.932;11.592;2022-09-16T13:33:42;21.10;50.90
20568;DHT22;10442;49.932;11.592;2022-09-16T13:39:10;21.10;49.70
20568;DHT22;10442;49.932;11.592;2022-09-16T13:41:44;21.10;50.00
20568;DHT22;10442;49.932;11.592;2022-09-16T13:49:50;21.20;49.30
20568;DHT22;10442;49.932;11.592;2022-09-16T13:52:28;21.20;49.00
20568;DHT22;10442;49.932;11.592;2022-09-16T13:54:59;21.20;48.70
20568;DHT22;10442;49.932;11.592;2022-09-16T14:06:43;21.10;47.60
20568;DHT22;10442;49.932;11.592;2022-09-16T14:09:27;21.00;48.20
20568;DHT22;10442;49.932;11.592;2022-09-16T14:14:46;20.80;48.10
20568;DHT22;10442;49.932;11.592;2022-09-16T14:17:21;20.70;47.80
20568;DHT22;10442;49.932;11.592;2022-09-16T14:19:55;20.70;46.30
20568;DHT22;10442;49.932;11.592;2022-09-16T14:22:24;20.70;46.90
20568;DHT22;10442;49.932;11.592;2022-09-16T14:24:54;20.60;47.00
20568;DHT22;10442;49.932;11.592;2022-09-16T14:27:34;20.60;46.60
20568;DHT22;10442;49.932;11.592;2022-09-16T14:30:13;20.60;47.20
20568;DHT22;10442;49.932;11.592;2022-09-16T14:32:43;20.60;47.00
20568;DHT22;10442;49.932;11.592;2022-09-16T14:35:22;20.60;47.50
20568;DHT22;10442;49.932;11.592;2022-09-16T14:37:54;20.60;46.70
20568;DHT22;10442;49.932;11.592;2022-09-16T14:40:27;20.50;47.60
20568;DHT22;10442;49.932;11.592;2022-09-16T14:43:04;20.50;47.40
20568;DHT22;10442;49.932;11.592;2022-09-16T14:45:33;20.40;47.30
20568;DHT22;10442;49.932;11.592;2022-09-16T14:48:05;20.30;47.50
20568;DHT22;10442;49.932;11.592;2022-09-16T14:50:39;20.30;47.90
20568;DHT22;10442;49.932;11.592;2022-09-16T14:53:24;20.30;48.00
20568;DHT22;10442;49.932;11.592;2022-09-16T14:56:02;20.20;48.70
20568;DHT22;10442;49.932;11.592;2022-09-16T14:58:31;20.20;48.80
20568;DHT22;10442;49.932;11.592;2022-09-16T15:01:07;20.10;48.90
20568;DHT22;10442;49.932;11.592;2022-09-16T15:06:22;20.10;50.20
20568;DHT22;10442;49.932;11.592;2022-09-16T15:09:06;20.00;51.50
20568;DHT22;10442;49.932;11.592;2022-09-16T15:11:49;19.80;51.90
20568;DHT22;10442;49.932;11.592;2022-09-16T15:14:19;19.70;52.50
20568;DHT22;10442;49.932;11.592;2022-09-16T15:16:49;19.60;53.00
20568;DHT22;10442;49.932;11.592;2022-09-16T15:19:24;19.50;53.20
20568;DHT22;10442;49.932;11.592;2022-09-16T15:21:52;19.40;53.80
20568;DHT22;10442;49.932;11.592;2022-09-16T15:24:23;19.30;53.70
20568;DHT22;10442;49.932;11.592;2022-09-16T15:26:55;19.20;54.00
20568;DHT22;10442;49.932;11.592;2022-09-16T15:31:51;19.10;53.90
20568;DHT22;10442;49.932;11.592;2022-09-16T15:34:21;19.10;54.00
20568;DHT22;10442;49.932;11.592;2022-09-16T15:36:57;19.00;54.40
20568;DHT22;10442;49.932;11.592;2022-09-16T15:39:36;18.90;54.10
20568;DHT22;10442;49.932;11.592;2022-09-16T15:42:10;18.80;54.50
20568;DHT22;10442;49.932;11.592;2022-09-16T15:44:48;18.80;54.70
20568;DHT22;10442;49.932;11.592;2022-09-16T15:47:31;18.70;54.90
20568;DHT22;10442;49.932;11.592;2022-09-16T15:50:03;18.70;55.00
20568;DHT22;10442;49.932;11.592;2022-09-16T15:52:48;18.70;54.90
20568;DHT22;10442;49.932;11.592;2022-09-16T15:55:42;18.70;54.80
20568;DHT22;10442;49.932;11.592;2022-09-16T15:58:22;18.70;55.10
20568;DHT22;10442;49.932;11.592;2022-09-16T16:01:01;18.70;55.10
20568;DHT22;10442;49.932;11.592;2022-09-16T16:06:11;18.60;55.60
20568;DHT22;10442;49.932;11.592;2022-09-16T16:08:50;18.60;55.50
20568;DHT22;10442;49.932;11.592;2022-09-16T16:11:20;18.50;56.10
20568;DHT22;10442;49.932;11.592;2022-09-16T16:13:51;18.40;56.50
20568;DHT22;10442;49.932;11.592;2022-09-16T16:16:19;18.40;57.00
20568;DHT22;10442;49.932;11.592;2022-09-16T16:18:47;18.40;57.50
20568;DHT22;10442;49.932;11.592;2022-09-16T16:21:15;18.30;58.70
20568;DHT22;10442;49.932;11.592;2022-09-16T16:23:43;18.30;58.70
20568;DHT22;10442;49.932;11.592;2022-09-16T16:26:11;18.30;59.00
20568;DHT22;10442;49.932;11.592;2022-09-16T16:28:38;18.20;59.40
20568;DHT22;10442;49.932;11.592;2022-09-16T16:31:17;18.10;59.20
20568;DHT22;10442;49.932;11.592;2022-09-16T16:33:46;18.10;60.00
20568;DHT22;10442;49.932;11.592;2022-09-16T16:36:16;18.00;59.30
20568;DHT22;10442;49.932;11.592;2022-09-16T16:38:43;17.90;59.60
20568;DHT22;10442;49.932;11.592;2022-09-16T16:41:18;17.80;59.40
20568;DHT22;10442;49.932;11.592;2022-09-16T16:43:46;17.70;60.00
20568;DHT22;10442;49.932;11.592;2022-09-16T16:46:14;17.60;59.50
20568;DHT22;10442;49.932;11.592;2022-09-16T16:48:44;17.50;59.60
20568;DHT22;10442;49.932;11.592;2022-09-16T16:51:11;17.40;60.10
20568;DHT22;10442;49.932;11.592;2022-09-16T16:53:39;17.30;60.00
20568;DHT22;10442;49.932;11.592;2022-09-16T16:56:11;17.20;60.30
20568;DHT22;10442;49.932;11.592;2022-09-16T16:58:41;17.20;61.00
20568;DHT22;10442;49.932;11.592;2022-09-16T17:01:14;17.10;60.80
20568;DHT22;10442;49.932;11.592;2022-09-16T17:03:44;17.00;61.30
20568;DHT22;10442;49.932;11.592;2022-09-16T17:06:12;17.00;61.10
20568;DHT22;10442;49.932;11.592;2022-09-16T17:08:40;17.00;61.50
20568;DHT22;10442;49.932;11.592;2022-09-16T17:11:17;16.90;61.60
20568;DHT22;10442;49.932;11.592;2022-09-16T17:13:47;16.80;62.00
20568;DHT22;10442;49.932;11.592;2022-09-16T17:16:20;16.80;61.60
20568;DHT22;10442;49.932;11.592;2022-09-16T17:18:48;16.70;61.70
20568;DHT22;10442;49.932;11.592;2022-09-16T17:21:19;16.70;61.80
20568;DHT22;10442;49.932;11.592;2022-09-16T17:23:47;16.50;62.60
20568;DHT22;10442;49.932;11.592;2022-09-16T17:26:15;16.50;62.00
20568;DHT22;10442;49.932;11.592;2022-09-16T17:28:44;16.40;61.90
20568;DHT22;10442;49.932;11.592;2022-09-16T17:31:21;16.30;62.10
20568;DHT22;10442;49.932;11.592;2022-09-16T17:33:53;16.20;63.60
20568;DHT22;10442;49.932;11.592;2022-09-16T17:36:22;16.20;63.90
20568;DHT22;10442;49.932;11.592;2022-09-16T17:39:02;16.20;64.70
20568;DHT22;10442;49.932;11.592;2022-09-16T17:41:30;16.10;65.50
20568;DHT22;10442;49.932;11.592;2022-09-16T17:44:02;16.00;65.40
20568;DHT22;10442;49.932;11.592;2022-09-16T17:46:30;16.00;65.70
20568;DHT22;10442;49.932;11.592;2022-09-16T17:49:02;15.90;65.80
20568;DHT22;10442;49.932;11.592;2022-09-16T17:51:32;15.90;66.10
20568;DHT22;10442;49.932;11.592;2022-09-16T17:54:01;15.90;66.00
20568;DHT22;10442;49.932;11.592;2022-09-16T17:56:30;15.90;66.20
20568;DHT22;10442;49.932;11.592;2022-09-16T17:58:57;15.90;67.30
20568;DHT22;10442;49.932;11.592;2022-09-16T18:01:25;15.80;66.70
20568;DHT22;10442;49.932;11.592;2022-09-16T18:03:54;15.70;66.40
20568;DHT22;10442;49.932;11.592;2022-09-16T18:06:28;15.70;66.70
20568;DHT22;10442;49.932;11.592;2022-09-16T18:08:58;15.60;66.90
20568;DHT22;10442;49.932;11.592;2022-09-16T18:11:27;15.60;66.70
20568;DHT22;10442;49.932;11.592;2022-09-16T18:13:56;15.50;66.80
20568;DHT22;10442;49.932;11.592;2022-09-16T18:16:26;15.50;67.20
20568;DHT22;10442;49.932;11.592;2022-09-16T18:18:56;15.50;67.10
20568;DHT22;10442;49.932;11.592;2022-09-16T18:21:26;15.40;67.60